sensor_id;sensor_type;location;lat;lon;timestamp;P1;durP1;ratioP1;P2;durP2;ratioP2
45049;SDS011;61798;48.048;-1.928;2022-11-30T00:00:32;72.97;;;37.20;;
45049;SDS011;61798;48.048;-1.928;2022-11-30T00:02:38;74.03;;;34.83;;
45049;SDS011;61798;48.048;-1.928;2022-11-30T00:04:44;71.43;;;36.15;;
45049;SDS011;61798;48.048;-1.928;2022-11-30T00:06:50;79.15;;;37.17;;
45049;SDS011;61798;48.048;-1.928;2022-11-30T00:09:02;76.18;;;33.78;;
45049;SDS011;61798;48.048;-1.928;2022-11-30T00:11:10;127.25;;;44.92;;
45049;SDS011;61798;48.048;-1.928;2022-11-30T00:13:21;94.07;;;43.20;;
45049;SDS011;61798;48.048;-1.928;2022-11-30T00:15:27;123.35;;;48.03;;
45049;SDS011;61798;48.048;-1.928;2022-11-30T00:17:33;107.80;;;45.15;;
45049;SDS011;61798;48.048;-1.928;2022-11-30T00:19:39;43.35;;;30.88;;
45049;SDS011;61798;48.048;-1.928;2022-11-30T00:21:45;58.92;;;32.13;;
45049;SDS011;61798;48.048;-1.928;2022-11-30T00:23:51;52.95;;;33.67;;
45049;SDS011;61798;48.048;-1.928;2022-11-30T00:26:04;67.97;;;36.83;;
45049;SDS011;61798;48.048;-1.928;2022-11-30T00:28:12;101.78;;;43.30;;
45049;SDS011;61798;48.048;-1.928;2022-11-30T00:30:18;46.00;;;29.98;;
45049;SDS011;61798;48.048;-1.928;2022-11-30T00:32:24;102.28;;;39.90;;
45049;SDS011;61798;48.048;-1.928;2022-11-30T00:34:31;58.33;;;33.60;;
45049;SDS011;61798;48.048;-1.928;2022-11-30T00:36:37;87.95;;;41.78;;
45049;SDS011;61798;48.048;-1.928;2022-11-30T00:38:45;113.38;;;41.33;;
45049;SDS011;61798;48.048;-1.928;2022-11-30T00:40:51;105.30;;;41.10;;
45049;SDS011;61798;48.048;-1.928;2022-11-30T00:42:57;107.85;;;42.83;;
45049;SDS011;61798;48.048;-1.928;2022-11-30T00:45:03;97.10;;;39.92;;
45049;SDS011;61798;48.048;-1.928;2022-11-30T00:47:10;73.72;;;39.05;;
45049;SDS011;61798;48.048;-1.928;2022-11-30T00:49:17;109.78;;;41.55;;
45049;SDS011;61798;48.048;-1.928;2022-11-30T00:51:23;104.65;;;40.65;;
45049;SDS011;61798;48.048;-1.928;2022-11-30T00:53:30;87.43;;;37.22;;
45049;SDS011;61798;48.048;-1.928;2022-11-30T00:55:36;87.20;;;38.88;;
45049;SDS011;61798;48.048;-1.928;2022-11-30T00:57:42;70.45;;;35.95;;
45049;SDS011;61798;48.048;-1.928;2022-11-30T00:59:48;97.97;;;35.78;;
45049;SDS011;61798;48.048;-1.928;2022-11-30T01:01:54;41.25;;;26.23;;
45049;SDS011;61798;48.048;-1.928;2022-11-30T01:04:00;99.55;;;33.15;;
45049;SDS011;61798;48.048;-1.928;2022-11-30T01:06:07;41.08;;;27.27;;
45049;SDS011;61798;48.048;-1.928;2022-11-30T01:08:14;84.88;;;33.90;;
45049;SDS011;61798;48.048;-1.928;2022-11-30T01:10:20;58.15;;;29.17;;
45049;SDS011;61798;48.048;-1.928;2022-11-30T01:12:27;42.38;;;25.67;;
45049;SDS011;61798;48.048;-1.928;2022-11-30T01:14:33;63.38;;;31.00;;
45049;SDS011;61798;48.048;-1.928;2022-11-30T01:16:39;80.85;;;31.33;;
45049;SDS011;61798;48.048;-1.928;2022-11-30T01:18:47;105.63;;;32.05;;
45049;SDS011;61798;48.048;-1.928;2022-11-30T01:20:53;67.97;;;30.02;;
45049;SDS011;61798;48.048;-1.928;2022-11-30T01:22:59;109.45;;;32.67;;
45049;SDS011;61798;48.048;-1.928;2022-11-30T01:25:05;119.88;;;31.52;;
45049;SDS011;61798;48.048;-1.928;2022-11-30T01:27:12;68.80;;;31.90;;
45049;SDS011;61798;48.048;-1.928;2022-11-30T01:29:19;80.70;;;30.33;;
45049;SDS011;61798;48.048;-1.928;2022-11-30T01:31:25;60.47;;;29.98;;
45049;SDS011;61798;48.048;-1.928;2022-11-30T01:33:32;67.72;;;29.50;;
45049;SDS011;61798;48.048;-1.928;2022-11-30T01:35:38;53.05;;;27.65;;
45049;SDS011;61798;48.048;-1.928;2022-11-30T01:37:44;49.75;;;26.38;;
45049;SDS011;61798;48.048;-1.928;2022-11-30T01:39:50;54.95;;;27.80;;
45049;SDS011;61798;48.048;-1.928;2022-11-30T01:41:56;37.42;;;23.88;;
45049;SDS011;61798;48.048;-1.928;2022-11-30T01:49:12;51.30;;;25.65;;
45049;SDS011;61798;48.048;-1.928;2022-11-30T01:51:33;52.70;;;25.98;;
45049;SDS011;61798;48.048;-1.928;2022-11-30T01:54:03;76.95;;;24.90;;
45049;SDS011;61798;48.048;-1.928;2022-11-30T01:56:12;63.53;;;24.38;;
45049;SDS011;61798;48.048;-1.928;2022-11-30T01:58:19;55.03;;;26.25;;
45049;SDS011;61798;48.048;-1.928;2022-11-30T02:00:30;52.13;;;26.05;;
45049;SDS011;61798;48.048;-1.928;2022-11-30T02:04:49;63.58;;;24.10;;
45049;SDS011;61798;48.048;-1.928;2022-11-30T02:06:57;60.40;;;23.45;;
45049;SDS011;61798;48.048;-1.928;2022-11-30T02:09:05;56.13;;;24.10;;
45049;SDS011;61798;48.048;-1.928;2022-11-30T02:11:11;36.55;;;21.63;;
45049;SDS011;61798;48.048;-1.928;2022-11-30T02:13:25;30.60;;;20.05;;
45049;SDS011;61798;48.048;-1.928;2022-11-30T02:18:30;41.65;;;22.80;;
45049;SDS011;61798;48.048;-1.928;2022-11-30T02:20:45;78.93;;;23.25;;
45049;SDS011;61798;48.048;-1.928;2022-11-30T02:23:09;43.83;;;22.45;;
45049;SDS011;61798;48.048;-1.928;2022-11-30T02:25:35;52.88;;;22.85;;
45049;SDS011;61798;48.048;-1.928;2022-11-30T02:30:28;32.00;;;19.60;;
45049;SDS011;61798;48.048;-1.928;2022-11-30T02:35:07;48.45;;;22.33;;
45049;SDS011;61798;48.048;-1.928;2022-11-30T02:37:16;31.30;;;19.25;;
45049;SDS011;61798;48.048;-1.928;2022-11-30T02:39:23;29.10;;;19.27;;
45049;SDS011;61798;48.048;-1.928;2022-11-30T02:41:36;32.75;;;21.00;;
45049;SDS011;61798;48.048;-1.928;2022-11-30T02:43:43;59.97;;;21.88;;
45049;SDS011;61798;48.048;-1.928;2022-11-30T02:48:38;31.10;;;18.77;;
45049;SDS011;61798;48.048;-1.928;2022-11-30T02:50:51;51.95;;;21.35;;
45049;SDS011;61798;48.048;-1.928;2022-11-30T02:53:01;35.70;;;19.08;;
45049;SDS011;61798;48.048;-1.928;2022-11-30T02:55:09;40.53;;;20.88;;
45049;SDS011;61798;48.048;-1.928;2022-11-30T02:57:19;42.78;;;19.45;;
45049;SDS011;61798;48.048;-1.928;2022-11-30T02:59:26;39.65;;;19.83;;
45049;SDS011;61798;48.048;-1.928;2022-11-30T03:01:32;43.85;;;20.13;;
45049;SDS011;61798;48.048;-1.928;2022-11-30T03:03:38;35.53;;;20.08;;
45049;SDS011;61798;48.048;-1.928;2022-11-30T03:05:46;38.10;;;20.42;;
45049;SDS011;61798;48.048;-1.928;2022-11-30T03:07:52;40.10;;;20.33;;
45049;SDS011;61798;48.048;-1.928;2022-11-30T03:09:59;45.88;;;21.85;;
45049;SDS011;61798;48.048;-1.928;2022-11-30T03:12:05;46.20;;;22.05;;
45049;SDS011;61798;48.048;-1.928;2022-11-30T03:14:12;38.45;;;21.25;;
45049;SDS011;61798;48.048;-1.928;2022-11-30T03:16:18;35.30;;;21.23;;
45049;SDS011;61798;48.048;-1.928;2022-11-30T03:18:24;49.35;;;21.15;;
45049;SDS011;61798;48.048;-1.928;2022-11-30T03:20:30;38.08;;;20.23;;
45049;SDS011;61798;48.048;-1.928;2022-11-30T03:22:36;34.47;;;20.85;;
45049;SDS011;61798;48.048;-1.928;2022-11-30T03:24:44;43.60;;;20.98;;
45049;SDS011;61798;48.048;-1.928;2022-11-30T03:26:50;57.00;;;22.30;;
45049;SDS011;61798;48.048;-1.928;2022-11-30T03:28:56;58.38;;;20.52;;
45049;SDS011;61798;48.048;-1.928;2022-11-30T03:31:02;49.50;;;22.70;;
45049;SDS011;61798;48.048;-1.928;2022-11-30T03:33:09;75.05;;;25.98;;
45049;SDS011;61798;48.048;-1.928;2022-11-30T03:35:14;99.78;;;32.60;;
45049;SDS011;61798;48.048;-1.928;2022-11-30T03:37:22;87.15;;;28.40;;
45049;SDS011;61798;48.048;-1.928;2022-11-30T03:39:29;97.68;;;26.08;;
45049;SDS011;61798;48.048;-1.928;2022-11-30T03:41:35;66.10;;;25.95;;
45049;SDS011;61798;48.048;-1.928;2022-11-30T03:43:45;98.45;;;25.63;;
45049;SDS011;61798;48.048;-1.928;2022-11-30T03:45:52;81.80;;;24.17;;
45049;SDS011;61798;48.048;-1.928;2022-11-30T03:47:58;65.00;;;23.13;;
45049;SDS011;61798;48.048;-1.928;2022-11-30T03:50:04;80.75;;;22.98;;
45049;SDS011;61798;48.048;-1.928;2022-11-30T03:52:11;84.65;;;24.65;;
45049;SDS011;61798;48.048;-1.928;2022-11-30T03:54:17;39.05;;;21.80;;
45049;SDS011;61798;48.048;-1.928;2022-11-30T03:56:23;40.92;;;22.52;;
45049;SDS011;61798;48.048;-1.928;2022-11-30T03:58:29;100.80;;;25.02;;
45049;SDS011;61798;48.048;-1.928;2022-11-30T04:00:35;179.75;;;25.45;;
45049;SDS011;61798;48.048;-1.928;2022-11-30T04:02:42;101.68;;;24.10;;
45049;SDS011;61798;48.048;-1.928;2022-11-30T04:04:49;33.50;;;20.08;;
45049;SDS011;61798;48.048;-1.928;2022-11-30T04:06:55;43.80;;;22.38;;
45049;SDS011;61798;48.048;-1.928;2022-11-30T04:09:01;46.00;;;22.70;;
45049;SDS011;61798;48.048;-1.928;2022-11-30T04:11:07;39.10;;;21.42;;
45049;SDS011;61798;48.048;-1.928;2022-11-30T04:13:13;98.35;;;26.02;;
45049;SDS011;61798;48.048;-1.928;2022-11-30T04:15:21;62.53;;;24.40;;
45049;SDS011;61798;48.048;-1.928;2022-11-30T04:17:27;127.03;;;26.35;;
45049;SDS011;61798;48.048;-1.928;2022-11-30T04:19:34;176.70;;;25.42;;
45049;SDS011;61798;48.048;-1.928;2022-11-30T04:21:40;160.43;;;24.77;;
45049;SDS011;61798;48.048;-1.928;2022-11-30T04:23:46;89.85;;;24.00;;
45049;SDS011;61798;48.048;-1.928;2022-11-30T04:25:53;46.55;;;23.02;;
45049;SDS011;61798;48.048;-1.928;2022-11-30T04:27:59;46.63;;;22.98;;
45049;SDS011;61798;48.048;-1.928;2022-11-30T04:30:06;47.28;;;23.02;;
45049;SDS011;61798;48.048;-1.928;2022-11-30T04:32:13;51.05;;;23.92;;
45049;SDS011;61798;48.048;-1.928;2022-11-30T04:34:19;44.58;;;22.15;;
45049;SDS011;61798;48.048;-1.928;2022-11-30T04:36:25;40.42;;;21.27;;
45049;SDS011;61798;48.048;-1.928;2022-11-30T04:38:31;45.63;;;19.08;;
45049;SDS011;61798;48.048;-1.928;2022-11-30T04:40:41;41.55;;;17.02;;
45049;SDS011;61798;48.048;-1.928;2022-11-30T04:42:48;38.70;;;16.33;;
45049;SDS011;61798;48.048;-1.928;2022-11-30T04:44:56;40.97;;;14.48;;
45049;SDS011;61798;48.048;-1.928;2022-11-30T04:47:02;40.28;;;15.57;;
45049;SDS011;61798;48.048;-1.928;2022-11-30T04:49:08;37.90;;;13.30;;
45049;SDS011;61798;48.048;-1.928;2022-11-30T04:51:14;36.42;;;13.35;;
45049;SDS011;61798;48.048;-1.928;2022-11-30T04:53:20;35.67;;;12.80;;
45049;SDS011;61798;48.048;-1.928;2022-11-30T04:55:27;34.22;;;13.15;;
45049;SDS011;61798;48.048;-1.928;2022-11-30T04:57:33;38.25;;;13.35;;
45049;SDS011;61798;48.048;-1.928;2022-11-30T04:59:39;37.33;;;14.18;;
45049;SDS011;61798;48.048;-1.928;2022-11-30T05:01:46;34.03;;;13.43;;
45049;SDS011;61798;48.048;-1.928;2022-11-30T05:03:52;37.67;;;14.10;;
45049;SDS011;61798;48.048;-1.928;2022-11-30T05:06:00;40.20;;;13.73;;
45049;SDS011;61798;48.048;-1.928;2022-11-30T05:08:07;42.58;;;13.73;;
45049;SDS011;61798;48.048;-1.928;2022-11-30T05:10:13;36.83;;;13.70;;
45049;SDS011;61798;48.048;-1.928;2022-11-30T05:12:19;35.50;;;13.40;;
45049;SDS011;61798;48.048;-1.928;2022-11-30T05:14:25;35.83;;;14.70;;
45049;SDS011;61798;48.048;-1.928;2022-11-30T05:16:31;36.17;;;12.70;;
45049;SDS011;61798;48.048;-1.928;2022-11-30T05:18:37;29.00;;;12.70;;
45049;SDS011;61798;48.048;-1.928;2022-11-30T05:20:50;28.38;;;12.30;;
45049;SDS011;61798;48.048;-1.928;2022-11-30T05:22:57;30.67;;;11.93;;
45049;SDS011;61798;48.048;-1.928;2022-11-30T05:25:05;34.50;;;13.13;;
45049;SDS011;61798;48.048;-1.928;2022-11-30T05:27:12;34.33;;;12.75;;
45049;SDS011;61798;48.048;-1.928;2022-11-30T05:29:18;29.00;;;12.50;;
45049;SDS011;61798;48.048;-1.928;2022-11-30T05:31:24;28.30;;;10.77;;
45049;SDS011;61798;48.048;-1.928;2022-11-30T05:33:30;29.38;;;11.23;;
45049;SDS011;61798;48.048;-1.928;2022-11-30T05:35:37;29.20;;;11.52;;
45049;SDS011;61798;48.048;-1.928;2022-11-30T05:37:44;26.33;;;11.15;;
45049;SDS011;61798;48.048;-1.928;2022-11-30T05:39:51;27.92;;;12.27;;
45049;SDS011;61798;48.048;-1.928;2022-11-30T05:41:57;25.52;;;12.02;;
45049;SDS011;61798;48.048;-1.928;2022-11-30T05:44:03;21.65;;;11.05;;
45049;SDS011;61798;48.048;-1.928;2022-11-30T05:46:10;22.73;;;11.02;;
45049;SDS011;61798;48.048;-1.928;2022-11-30T05:48:16;23.25;;;10.73;;
45049;SDS011;61798;48.048;-1.928;2022-11-30T05:50:22;22.65;;;11.25;;
45049;SDS011;61798;48.048;-1.928;2022-11-30T05:52:29;25.42;;;11.13;;
45049;SDS011;61798;48.048;-1.928;2022-11-30T05:54:35;26.92;;;11.40;;
45049;SDS011;61798;48.048;-1.928;2022-11-30T05:56:41;23.05;;;10.95;;
45049;SDS011;61798;48.048;-1.928;2022-11-30T05:58:47;20.95;;;10.38;;
45049;SDS011;61798;48.048;-1.928;2022-11-30T06:00:53;21.30;;;9.55;;
45049;SDS011;61798;48.048;-1.928;2022-11-30T06:03:00;20.13;;;9.48;;
45049;SDS011;61798;48.048;-1.928;2022-11-30T06:05:06;29.92;;;11.15;;
45049;SDS011;61798;48.048;-1.928;2022-11-30T06:07:12;25.17;;;11.40;;
45049;SDS011;61798;48.048;-1.928;2022-11-30T06:09:18;22.13;;;10.82;;
45049;SDS011;61798;48.048;-1.928;2022-11-30T06:11:24;23.00;;;11.35;;
45049;SDS011;61798;48.048;-1.928;2022-11-30T06:13:32;22.52;;;11.18;;
45049;SDS011;61798;48.048;-1.928;2022-11-30T06:15:38;27.00;;;11.48;;
45049;SDS011;61798;48.048;-1.928;2022-11-30T06:17:47;22.55;;;10.85;;
45049;SDS011;61798;48.048;-1.928;2022-11-30T06:19:53;21.08;;;10.25;;
45049;SDS011;61798;48.048;-1.928;2022-11-30T06:21:58;21.38;;;10.40;;
45049;SDS011;61798;48.048;-1.928;2022-11-30T06:24:06;23.00;;;10.88;;
45049;SDS011;61798;48.048;-1.928;2022-11-30T06:26:12;20.77;;;10.40;;
45049;SDS011;61798;48.048;-1.928;2022-11-30T06:28:20;17.83;;;9.68;;
45049;SDS011;61798;48.048;-1.928;2022-11-30T06:30:26;22.98;;;10.90;;
45049;SDS011;61798;48.048;-1.928;2022-11-30T06:32:34;20.00;;;10.30;;
45049;SDS011;61798;48.048;-1.928;2022-11-30T06:34:40;20.17;;;11.13;;
45049;SDS011;61798;48.048;-1.928;2022-11-30T06:36:46;19.25;;;10.30;;
45049;SDS011;61798;48.048;-1.928;2022-11-30T06:38:52;21.02;;;10.23;;
45049;SDS011;61798;48.048;-1.928;2022-11-30T06:41:05;21.45;;;9.98;;
45049;SDS011;61798;48.048;-1.928;2022-11-30T06:43:14;17.55;;;9.82;;
45049;SDS011;61798;48.048;-1.928;2022-11-30T06:45:20;19.33;;;9.30;;
45049;SDS011;61798;48.048;-1.928;2022-11-30T06:47:26;18.20;;;9.40;;
45049;SDS011;61798;48.048;-1.928;2022-11-30T06:49:32;20.38;;;10.38;;
45049;SDS011;61798;48.048;-1.928;2022-11-30T06:51:38;17.33;;;9.73;;
45049;SDS011;61798;48.048;-1.928;2022-11-30T06:53:45;18.83;;;9.85;;
45049;SDS011;61798;48.048;-1.928;2022-11-30T06:55:51;19.90;;;9.52;;
45049;SDS011;61798;48.048;-1.928;2022-11-30T06:58:06;17.33;;;9.43;;
45049;SDS011;61798;48.048;-1.928;2022-11-30T07:00:13;18.77;;;9.70;;
45049;SDS011;61798;48.048;-1.928;2022-11-30T07:02:20;17.17;;;9.93;;
45049;SDS011;61798;48.048;-1.928;2022-11-30T07:04:25;21.90;;;10.18;;
45049;SDS011;61798;48.048;-1.928;2022-11-30T07:06:31;21.48;;;10.63;;
45049;SDS011;61798;48.048;-1.928;2022-11-30T07:08:38;18.00;;;10.73;;
45049;SDS011;61798;48.048;-1.928;2022-11-30T07:10:45;23.05;;;11.60;;
45049;SDS011;61798;48.048;-1.928;2022-11-30T07:12:53;21.45;;;11.63;;
45049;SDS011;61798;48.048;-1.928;2022-11-30T07:14:59;23.02;;;12.07;;
45049;SDS011;61798;48.048;-1.928;2022-11-30T07:17:05;22.02;;;10.52;;
45049;SDS011;61798;48.048;-1.928;2022-11-30T07:19:11;20.02;;;11.82;;
45049;SDS011;61798;48.048;-1.928;2022-11-30T07:21:17;23.60;;;12.05;;
45049;SDS011;61798;48.048;-1.928;2022-11-30T07:23:24;25.35;;;12.02;;
45049;SDS011;61798;48.048;-1.928;2022-11-30T07:25:51;23.52;;;11.52;;
45049;SDS011;61798;48.048;-1.928;2022-11-30T07:28:17;21.25;;;11.30;;
45049;SDS011;61798;48.048;-1.928;2022-11-30T07:30:25;21.20;;;11.55;;
45049;SDS011;61798;48.048;-1.928;2022-11-30T07:32:33;21.70;;;10.93;;
45049;SDS011;61798;48.048;-1.928;2022-11-30T07:34:40;29.13;;;15.20;;
45049;SDS011;61798;48.048;-1.928;2022-11-30T07:36:47;23.75;;;13.63;;
45049;SDS011;61798;48.048;-1.928;2022-11-30T07:38:55;23.33;;;11.73;;
45049;SDS011;61798;48.048;-1.928;2022-11-30T07:41:02;23.67;;;12.43;;
45049;SDS011;61798;48.048;-1.928;2022-11-30T07:43:10;29.67;;;13.80;;
45049;SDS011;61798;48.048;-1.928;2022-11-30T07:45:17;27.45;;;13.57;;
45049;SDS011;61798;48.048;-1.928;2022-11-30T07:47:23;26.17;;;14.05;;
45049;SDS011;61798;48.048;-1.928;2022-11-30T07:49:34;31.75;;;16.38;;
45049;SDS011;61798;48.048;-1.928;2022-11-30T07:51:44;25.17;;;14.23;;
45049;SDS011;61798;48.048;-1.928;2022-11-30T07:53:51;26.02;;;12.68;;
45049;SDS011;61798;48.048;-1.928;2022-11-30T07:56:02;25.60;;;12.18;;
45049;SDS011;61798;48.048;-1.928;2022-11-30T07:58:13;28.93;;;13.57;;
45049;SDS011;61798;48.048;-1.928;2022-11-30T08:00:20;30.02;;;13.90;;
45049;SDS011;61798;48.048;-1.928;2022-11-30T08:02:30;24.63;;;12.70;;
45049;SDS011;61798;48.048;-1.928;2022-11-30T08:04:37;30.83;;;15.20;;
45049;SDS011;61798;48.048;-1.928;2022-11-30T08:06:43;27.27;;;14.45;;
45049;SDS011;61798;48.048;-1.928;2022-11-30T08:08:50;38.50;;;15.57;;
45049;SDS011;61798;48.048;-1.928;2022-11-30T08:10:59;31.98;;;14.25;;
45049;SDS011;61798;48.048;-1.928;2022-11-30T08:13:06;25.63;;;13.50;;
45049;SDS011;61798;48.048;-1.928;2022-11-30T08:15:13;31.38;;;14.93;;
45049;SDS011;61798;48.048;-1.928;2022-11-30T08:17:19;28.40;;;14.15;;
45049;SDS011;61798;48.048;-1.928;2022-11-30T08:19:26;36.78;;;16.33;;
45049;SDS011;61798;48.048;-1.928;2022-11-30T08:21:32;31.23;;;15.27;;
45049;SDS011;61798;48.048;-1.928;2022-11-30T08:23:41;32.10;;;14.65;;
45049;SDS011;61798;48.048;-1.928;2022-11-30T08:25:49;41.58;;;17.17;;
45049;SDS011;61798;48.048;-1.928;2022-11-30T08:27:56;34.63;;;17.35;;
45049;SDS011;61798;48.048;-1.928;2022-11-30T08:30:05;35.75;;;16.98;;
45049;SDS011;61798;48.048;-1.928;2022-11-30T08:32:13;35.17;;;16.20;;
45049;SDS011;61798;48.048;-1.928;2022-11-30T08:34:21;39.10;;;17.17;;
45049;SDS011;61798;48.048;-1.928;2022-11-30T08:36:29;38.42;;;18.02;;
45049;SDS011;61798;48.048;-1.928;2022-11-30T08:38:39;38.30;;;17.25;;
45049;SDS011;61798;48.048;-1.928;2022-11-30T08:40:46;32.38;;;16.15;;
45049;SDS011;61798;48.048;-1.928;2022-11-30T08:42:52;37.78;;;16.20;;
45049;SDS011;61798;48.048;-1.928;2022-11-30T08:44:58;29.50;;;14.77;;
45049;SDS011;61798;48.048;-1.928;2022-11-30T08:47:04;30.95;;;15.07;;
45049;SDS011;61798;48.048;-1.928;2022-11-30T08:49:11;31.65;;;15.73;;
45049;SDS011;61798;48.048;-1.928;2022-11-30T08:51:18;32.63;;;15.27;;
45049;SDS011;61798;48.048;-1.928;2022-11-30T08:53:26;29.50;;;15.10;;
45049;SDS011;61798;48.048;-1.928;2022-11-30T08:55:33;27.50;;;14.45;;
45049;SDS011;61798;48.048;-1.928;2022-11-30T08:57:39;31.38;;;15.05;;
45049;SDS011;61798;48.048;-1.928;2022-11-30T08:59:47;29.85;;;13.88;;
45049;SDS011;61798;48.048;-1.928;2022-11-30T09:01:53;27.27;;;13.15;;
45049;SDS011;61798;48.048;-1.928;2022-11-30T09:04:01;26.50;;;13.73;;
45049;SDS011;61798;48.048;-1.928;2022-11-30T09:06:11;22.45;;;12.98;;
45049;SDS011;61798;48.048;-1.928;2022-11-30T09:08:29;25.27;;;13.05;;
45049;SDS011;61798;48.048;-1.928;2022-11-30T09:10:35;27.13;;;13.82;;
45049;SDS011;61798;48.048;-1.928;2022-11-30T09:12:41;23.38;;;13.07;;
45049;SDS011;61798;48.048;-1.928;2022-11-30T09:14:48;24.85;;;13.20;;
45049;SDS011;61798;48.048;-1.928;2022-11-30T09:16:54;24.08;;;13.32;;
45049;SDS011;61798;48.048;-1.928;2022-11-30T09:19:00;25.30;;;13.18;;
45049;SDS011;61798;48.048;-1.928;2022-11-30T09:21:08;23.38;;;12.30;;
45049;SDS011;61798;48.048;-1.928;2022-11-30T09:23:16;23.08;;;12.80;;
45049;SDS011;61798;48.048;-1.928;2022-11-30T09:25:22;24.73;;;13.43;;
45049;SDS011;61798;48.048;-1.928;2022-11-30T09:27:32;20.85;;;12.50;;
45049;SDS011;61798;48.048;-1.928;2022-11-30T09:29:40;20.90;;;12.52;;
45049;SDS011;61798;48.048;-1.928;2022-11-30T09:31:47;23.65;;;13.25;;
45049;SDS011;61798;48.048;-1.928;2022-11-30T09:33:54;21.33;;;12.65;;
45049;SDS011;61798;48.048;-1.928;2022-11-30T09:36:03;22.30;;;12.25;;
45049;SDS011;61798;48.048;-1.928;2022-11-30T09:38:11;22.65;;;12.65;;
45049;SDS011;61798;48.048;-1.928;2022-11-30T09:40:17;22.20;;;12.48;;
45049;SDS011;61798;48.048;-1.928;2022-11-30T09:44:44;21.50;;;11.88;;
45049;SDS011;61798;48.048;-1.928;2022-11-30T09:49:35;21.38;;;11.07;;
45049;SDS011;61798;48.048;-1.928;2022-11-30T09:51:47;20.15;;;11.00;;
45049;SDS011;61798;48.048;-1.928;2022-11-30T09:53:58;19.38;;;9.70;;
45049;SDS011;61798;48.048;-1.928;2022-11-30T09:58:49;15.90;;;10.45;;
45049;SDS011;61798;48.048;-1.928;2022-11-30T10:01:00;17.63;;;10.43;;
45049;SDS011;61798;48.048;-1.928;2022-11-30T10:03:09;18.23;;;10.75;;
45049;SDS011;61798;48.048;-1.928;2022-11-30T10:10:27;18.98;;;10.00;;
45049;SDS011;61798;48.048;-1.928;2022-11-30T10:12:59;16.10;;;10.50;;
45049;SDS011;61798;48.048;-1.928;2022-11-30T10:21:05;16.60;;;9.75;;
45049;SDS011;61798;48.048;-1.928;2022-11-30T10:25:54;14.60;;;9.13;;
45049;SDS011;61798;48.048;-1.928;2022-11-30T10:30:47;14.82;;;9.93;;
45049;SDS011;61798;48.048;-1.928;2022-11-30T10:32:56;13.38;;;9.40;;
45049;SDS011;61798;48.048;-1.928;2022-11-30T10:35:17;14.00;;;8.85;;
45049;SDS011;61798;48.048;-1.928;2022-11-30T10:37:44;13.13;;;8.00;;
45049;SDS011;61798;48.048;-1.928;2022-11-30T10:39:59;15.43;;;9.02;;
45049;SDS011;61798;48.048;-1.928;2022-11-30T10:42:11;13.98;;;8.38;;
45049;SDS011;61798;48.048;-1.928;2022-11-30T10:44:25;15.65;;;8.50;;
45049;SDS011;61798;48.048;-1.928;2022-11-30T10:46:36;17.05;;;9.63;;
45049;SDS011;61798;48.048;-1.928;2022-11-30T10:49:00;14.15;;;9.20;;
45049;SDS011;61798;48.048;-1.928;2022-11-30T10:51:15;13.90;;;9.18;;
45049;SDS011;61798;48.048;-1.928;2022-11-30T10:53:23;16.42;;;9.65;;
45049;SDS011;61798;48.048;-1.928;2022-11-30T10:55:35;20.75;;;14.45;;
45049;SDS011;61798;48.048;-1.928;2022-11-30T10:57:46;19.98;;;13.35;;
45049;SDS011;61798;48.048;-1.928;2022-11-30T10:59:54;15.75;;;11.38;;
45049;SDS011;61798;48.048;-1.928;2022-11-30T11:02:06;16.30;;;11.30;;
45049;SDS011;61798;48.048;-1.928;2022-11-30T11:04:40;16.73;;;10.60;;
45049;SDS011;61798;48.048;-1.928;2022-11-30T11:09:21;14.75;;;9.07;;
45049;SDS011;61798;48.048;-1.928;2022-11-30T11:11:29;27.83;;;13.38;;
45049;SDS011;61798;48.048;-1.928;2022-11-30T11:13:37;17.33;;;10.85;;
45049;SDS011;61798;48.048;-1.928;2022-11-30T11:15:55;17.30;;;11.02;;
45049;SDS011;61798;48.048;-1.928;2022-11-30T11:18:22;12.93;;;8.40;;
45049;SDS011;61798;48.048;-1.928;2022-11-30T11:20:34;14.73;;;9.95;;
45049;SDS011;61798;48.048;-1.928;2022-11-30T11:22:43;9.68;;;6.20;;
45049;SDS011;61798;48.048;-1.928;2022-11-30T11:24:53;8.45;;;5.60;;
45049;SDS011;61798;48.048;-1.928;2022-11-30T11:27:18;7.22;;;5.00;;
45049;SDS011;61798;48.048;-1.928;2022-11-30T11:29:33;9.55;;;5.50;;
45049;SDS011;61798;48.048;-1.928;2022-11-30T11:31:42;7.43;;;4.95;;
45049;SDS011;61798;48.048;-1.928;2022-11-30T11:33:51;8.55;;;4.65;;
45049;SDS011;61798;48.048;-1.928;2022-11-30T11:43:14;11.93;;;5.03;;
45049;SDS011;61798;48.048;-1.928;2022-11-30T11:45:22;11.57;;;4.80;;
45049;SDS011;61798;48.048;-1.928;2022-11-30T11:47:35;11.02;;;6.65;;
45049;SDS011;61798;48.048;-1.928;2022-11-30T11:49:44;12.15;;;7.30;;
45049;SDS011;61798;48.048;-1.928;2022-11-30T11:52:02;10.23;;;6.47;;
45049;SDS011;61798;48.048;-1.928;2022-11-30T11:56:31;9.98;;;6.38;;
45049;SDS011;61798;48.048;-1.928;2022-11-30T11:59:05;11.60;;;6.90;;
45049;SDS011;61798;48.048;-1.928;2022-11-30T12:01:09;10.63;;;7.25;;
45049;SDS011;61798;48.048;-1.928;2022-11-30T12:03:30;16.17;;;7.75;;
45049;SDS011;61798;48.048;-1.928;2022-11-30T12:05:44;11.45;;;6.97;;
45049;SDS011;61798;48.048;-1.928;2022-11-30T12:10:39;10.38;;;6.10;;
45049;SDS011;61798;48.048;-1.928;2022-11-30T12:12:45;9.45;;;5.15;;
45049;SDS011;61798;48.048;-1.928;2022-11-30T12:14:51;8.60;;;5.35;;
45049;SDS011;61798;48.048;-1.928;2022-11-30T12:22:03;7.90;;;5.55;;
45049;SDS011;61798;48.048;-1.928;2022-11-30T12:26:39;9.60;;;5.88;;
45049;SDS011;61798;48.048;-1.928;2022-11-30T12:31:48;10.07;;;4.85;;
45049;SDS011;61798;48.048;-1.928;2022-11-30T12:34:24;12.35;;;8.05;;
45049;SDS011;61798;48.048;-1.928;2022-11-30T12:37:39;10.15;;;6.90;;
45049;SDS011;61798;48.048;-1.928;2022-11-30T12:39:43;10.95;;;6.25;;
45049;SDS011;61798;48.048;-1.928;2022-11-30T13:00:28;10.27;;;6.18;;
45049;SDS011;61798;48.048;-1.928;2022-11-30T13:05:20;10.68;;;7.53;;
45049;SDS011;61798;48.048;-1.928;2022-11-30T13:07:45;12.40;;;6.53;;
45049;SDS011;61798;48.048;-1.928;2022-11-30T13:10:02;10.25;;;7.00;;
45049;SDS011;61798;48.048;-1.928;2022-11-30T13:12:26;21.50;;;13.07;;
45049;SDS011;61798;48.048;-1.928;2022-11-30T13:14:45;14.90;;;9.57;;
45049;SDS011;61798;48.048;-1.928;2022-11-30T13:17:03;10.93;;;7.47;;
45049;SDS011;61798;48.048;-1.928;2022-11-30T13:19:55;14.75;;;10.23;;
45049;SDS011;61798;48.048;-1.928;2022-11-30T13:21:48;12.95;;;9.15;;
45049;SDS011;61798;48.048;-1.928;2022-11-30T13:24:13;11.35;;;7.97;;
45049;SDS011;61798;48.048;-1.928;2022-11-30T13:26:34;11.50;;;8.05;;
45049;SDS011;61798;48.048;-1.928;2022-11-30T13:36:04;13.18;;;8.35;;
45049;SDS011;61798;48.048;-1.928;2022-11-30T13:38:26;10.93;;;6.85;;
45049;SDS011;61798;48.048;-1.928;2022-11-30T13:40:33;12.93;;;7.60;;
45049;SDS011;61798;48.048;-1.928;2022-11-30T13:42:41;13.93;;;8.82;;
45049;SDS011;61798;48.048;-1.928;2022-11-30T13:44:49;15.43;;;7.57;;
45049;SDS011;61798;48.048;-1.928;2022-11-30T13:46:57;14.48;;;9.25;;
45049;SDS011;61798;48.048;-1.928;2022-11-30T13:49:18;19.33;;;10.20;;
45049;SDS011;61798;48.048;-1.928;2022-11-30T13:51:36;15.10;;;8.77;;
45049;SDS011;61798;48.048;-1.928;2022-11-30T13:53:45;16.98;;;10.20;;
45049;SDS011;61798;48.048;-1.928;2022-11-30T13:55:55;16.75;;;9.18;;
45049;SDS011;61798;48.048;-1.928;2022-11-30T13:58:07;16.65;;;9.82;;
45049;SDS011;61798;48.048;-1.928;2022-11-30T14:04:50;14.20;;;9.60;;
45049;SDS011;61798;48.048;-1.928;2022-11-30T14:06:56;17.05;;;9.25;;